Time;durP1;ratioP1;P1;durP2;ratioP2;P2;SDS_P1;SDS_P2;PMS_P1;PMS_P2;Temp;Humidity;BMP_temperature;BMP_pressure;BME280_temperature;BME280_humidity;BME280_pressure;Samples;Min_cycle;Max_cycle;Signal;HPM_P1;HPM_P2
2023/01/25 00:02:18;;;;;;;13.60;6.47;;;;;;;-146.73;100.00;56421.06;6214401;23;20043;-93
2023/01/25 00:04:44;;;;;;;13.85;6.10;;;;;;;-146.73;100.00;56421.06;6214514;23;20008;-94
2023/01/25 00:07:09;;;;;;;12.18;5.47;;;;;;;-146.73;100.00;56421.06;6242254;23;20062;-94
2023/01/25 00:09:35;;;;;;;13.25;5.53;;;;;;;-146.73;100.00;56421.06;6215691;23;20069;-94
2023/01/25 00:12:00;;;;;;;11.70;4.85;;;;;;;-146.73;100.00;56421.06;6215970;23;20004;-93
2023/01/25 00:14:26;;;;;;;11.27;5.13;;;;;;;-146.73;100.00;56421.06;6216043;23;20038;-93
2023/01/25 00:16:54;;;;;;;11.63;5.50;;;;;;;-146.73;100.00;56421.06;6215245;23;20103;-92
2023/01/25 00:19:20;;;;;;;16.77;6.57;;;;;;;-146.73;100.00;56421.06;6215107;23;20313;-92
2023/01/25 00:21:46;;;;;;;13.35;6.07;;;;;;;-146.73;100.00;56421.06;6240866;23;20071;-93
2023/01/25 00:24:13;;;;;;;13.60;5.95;;;;;;;-146.73;100.00;56421.06;6241882;23;20035;-92
2023/01/25 00:26:38;;;;;;;12.73;5.68;;;;;;;-146.73;100.00;56421.06;6213534;23;20027;-93
2023/01/25 00:29:05;;;;;;;14.20;6.00;;;;;;;-146.73;100.00;56421.06;6215896;23;20039;-93
2023/01/25 00:31:34;;;;;;;17.23;5.95;;;;;;;-146.73;100.00;56421.06;6216474;23;20196;-94
2023/01/25 00:34:25;;;;;;;12.48;5.22;;;;;;;-146.73;100.00;56421.06;6243762;23;20059;-94
2023/01/25 00:36:54;;;;;;;14.07;6.00;;;;;;;-146.73;100.00;56421.06;6215291;23;20007;-93
2023/01/25 00:39:19;;;;;;;12.35;5.50;;;;;;;-146.73;100.00;56421.06;6243055;23;20019;-94
2023/01/25 00:41:46;;;;;;;14.00;5.90;;;;;;;-146.73;100.00;56421.06;6218426;23;20017;-94
2023/01/25 00:44:15;;;;;;;16.05;6.78;;;;;;;-146.73;100.00;56421.06;6216716;23;20000;-94
2023/01/25 00:46:41;;;;;;;13.32;5.90;;;;;;;-146.73;100.00;56421.06;6215495;23;20062;-94
2023/01/25 00:49:25;;;;;;;13.35;6.05;;;;;;;-146.73;100.00;56421.06;6217461;23;20020;-94
2023/01/25 00:51:51;;;;;;;13.32;5.93;;;;;;;-146.73;100.00;56421.06;6217048;23;20051;-94
2023/01/25 00:54:17;;;;;;;13.70;5.57;;;;;;;-146.73;100.00;56421.06;6218003;23;20021;-93
2023/01/25 00:56:43;;;;;;;12.85;6.40;;;;;;;-146.73;100.00;56421.06;6246095;23;20330;-94
2023/01/25 00:59:10;;;;;;;11.27;5.03;;;;;;;-146.73;100.00;56421.06;6215791;23;20426;-94
2023/01/25 01:01:35;;;;;;;12.52;5.38;;;;;;;-146.73;100.00;56421.06;6216598;23;20019;-93
2023/01/25 01:04:01;;;;;;;14.65;6.38;;;;;;;-146.73;100.00;56421.06;6217448;23;20015;-93
2023/01/25 01:06:27;;;;;;;20.00;7.70;;;;;;;-146.73;100.00;56421.06;6217238;23;20705;-93
2023/01/25 01:08:52;;;;;;;16.35;6.93;;;;;;;-146.73;100.00;56421.06;6218204;23;20012;-92
2023/01/25 01:11:19;;;;;;;16.25;6.97;;;;;;;-146.73;100.00;56421.06;6217651;23;20004;-93
2023/01/25 01:13:44;;;;;;;18.30;7.60;;;;;;;-146.73;100.00;56421.06;6217428;23;20035;-93
2023/01/25 01:16:12;;;;;;;15.77;7.00;;;;;;;-146.73;100.00;56421.06;6216888;23;20012;-93
2023/01/25 01:18:40;;;;;;;15.13;7.57;;;;;;;-146.73;100.00;56421.06;6216782;23;20016;-94
2023/01/25 01:21:07;;;;;;;17.23;7.97;;;;;;;-146.73;100.00;56421.06;6213829;23;20020;-92
2023/01/25 01:23:34;;;;;;;19.08;8.05;;;;;;;-146.73;100.00;56421.06;6214901;23;20012;-93
2023/01/25 01:26:04;;;;;;;18.35;7.88;;;;;;;-146.73;100.00;56421.06;6215809;23;20008;-93
2023/01/25 01:28:34;;;;;;;17.17;8.07;;;;;;;-146.73;100.00;56421.06;6215412;23;20042;-91
2023/01/25 01:31:01;;;;;;;17.60;7.93;;;;;;;-146.73;100.00;56421.06;6215881;23;20452;-94
2023/01/25 01:33:27;;;;;;;19.90;8.25;;;;;;;-146.73;100.00;56421.06;6215629;23;20058;-95
2023/01/25 01:35:53;;;;;;;19.80;8.27;;;;;;;-146.73;100.00;56421.06;6241313;23;20004;-93
2023/01/25 01:38:18;;;;;;;16.83;7.07;;;;;;;-146.73;100.00;56421.06;6216632;23;20015;-94
2023/01/25 01:40:47;;;;;;;14.77;6.53;;;;;;;-146.73;100.00;56421.06;6216911;23;20146;-94
2023/01/25 01:43:19;;;;;;;15.25;7.07;;;;;;;-146.73;100.00;56421.06;6216288;23;20039;-94
2023/01/25 01:45:50;;;;;;;19.15;8.20;;;;;;;-146.73;100.00;56421.06;6215917;23;20046;-94
2023/01/25 01:48:33;;;;;;;18.70;8.25;;;;;;;-146.73;100.00;56421.06;6216032;23;20012;-93
2023/01/25 01:51:07;;;;;;;18.55;8.05;;;;;;;-146.73;100.00;56421.06;6244038;23;20015;-93
2023/01/25 01:53:33;;;;;;;16.30;7.45;;;;;;;-146.73;100.00;56421.06;6241609;23;20012;-94
2023/01/25 01:56:05;;;;;;;14.23;6.28;;;;;;;-146.73;100.00;56421.06;6214002;23;20115;-94
2023/01/25 01:58:31;;;;;;;13.55;5.88;;;;;;;-146.73;100.00;56421.06;6216683;23;20004;-95
2023/01/25 02:00:57;;;;;;;14.60;6.03;;;;;;;-146.73;100.00;56421.06;6215993;23;20111;-94
2023/01/25 02:03:23;;;;;;;15.70;6.72;;;;;;;-146.73;100.00;56421.06;6215189;23;20060;-93
2023/01/25 02:06:04;;;;;;;14.65;5.65;;;;;;;-146.73;100.00;56421.06;6214726;23;20538;-94
2023/01/25 02:08:32;;;;;;;17.33;5.85;;;;;;;-146.73;100.00;56421.06;6215127;23;20004;-94
2023/01/25 02:10:59;;;;;;;12.73;5.22;;;;;;;-146.73;100.00;56421.06;6215903;23;20039;-94
2023/01/25 02:13:25;;;;;;;13.30;5.50;;;;;;;-146.73;100.00;56421.06;6216377;23;20012;-94
2023/01/25 02:15:55;;;;;;;13.90;5.50;;;;;;;-146.73;100.00;56421.06;6243786;23;20004;-93
2023/01/25 02:18:20;;;;;;;14.18;5.50;;;;;;;-146.73;100.00;56421.06;6217950;23;20038;-94
2023/01/25 02:20:52;;;;;;;14.77;5.28;;;;;;;-146.73;100.00;56421.06;6215557;23;20508;-94
2023/01/25 02:23:39;;;;;;;13.30;5.68;;;;;;;-146.73;100.00;56421.06;6243151;23;20008;-94
2023/01/25 02:26:06;;;;;;;12.20;4.60;;;;;;;-146.73;100.00;56421.06;6217306;23;20115;-93
2023/01/25 02:29:02;;;;;;;12.32;3.75;;;;;;;-146.73;100.00;56421.06;6216966;23;20095;-92
2023/01/25 02:31:28;;;;;;;13.25;3.58;;;;;;;-146.73;100.00;56421.06;6217180;23;20015;-94
2023/01/25 02:33:53;;;;;;;10.18;3.97;;;;;;;-146.73;100.00;56421.06;6217548;23;20495;-93
2023/01/25 02:36:26;;;;;;;10.40;4.03;;;;;;;-146.73;100.00;56421.06;6217023;23;20131;-94
2023/01/25 02:38:56;;;;;;;10.23;4.00;;;;;;;-146.73;100.00;56421.06;6217484;23;20068;-95
2023/01/25 02:41:40;;;;;;;10.15;3.50;;;;;;;-146.73;100.00;56421.06;6217227;23;20040;-94
2023/01/25 02:44:12;;;;;;;13.48;4.32;;;;;;;-146.73;100.00;56421.06;6244484;23;20458;-94
2023/01/25 02:46:42;;;;;;;12.43;4.88;;;;;;;-146.73;100.00;56421.06;6243494;23;20433;-94
2023/01/25 02:49:08;;;;;;;12.80;4.47;;;;;;;-146.73;100.00;56421.06;6216696;23;20353;-94
2023/01/25 02:51:36;;;;;;;11.02;3.95;;;;;;;-146.73;100.00;56421.06;6214908;23;20000;-93
2023/01/25 02:54:04;;;;;;;12.02;4.18;;;;;;;-146.73;100.00;56421.06;6215790;23;20020;-94
2023/01/25 02:56:30;;;;;;;9.93;3.53;;;;;;;-146.73;100.00;56421.06;6215817;23;20008;-93
2023/01/25 02:58:56;;;;;;;11.02;4.03;;;;;;;-146.73;100.00;56421.06;6240871;23;20050;-94
2023/01/25 03:03:56;;;;;;;9.27;3.28;;;;;;;-146.73;100.00;56421.06;6208904;23;20441;-96
2023/01/25 03:06:39;;;;;;;8.77;2.63;;;;;;;-146.73;100.00;56421.06;6185809;23;20018;-96
2023/01/25 03:09:43;;;;;;;8.02;2.53;;;;;;;-146.73;100.00;56421.06;6187790;23;20019;-96
2023/01/25 03:12:28;;;;;;;7.93;2.10;;;;;;;-146.73;100.00;56421.06;6183700;23;20012;-96
2023/01/25 03:15:07;;;;;;;7.15;2.10;;;;;;;-146.73;100.00;56421.06;6188433;23;20437;-95
2023/01/25 03:17:33;;;;;;;7.53;2.10;;;;;;;-146.73;100.00;56421.06;6189511;23;20027;-95
2023/01/25 03:20:06;;;;;;;7.05;2.10;;;;;;;-146.73;100.00;56421.06;6188128;23;20013;-96
2023/01/25 03:22:58;;;;;;;6.55;1.90;;;;;;;-146.73;100.00;56421.06;6188021;23;20103;-96
2023/01/25 03:25:33;;;;;;;5.68;1.63;;;;;;;-146.73;100.00;56421.06;6188343;23;20028;-96
2023/01/25 03:28:13;;;;;;;5.65;1.40;;;;;;;-146.73;100.00;56421.06;6187943;23;20036;-96
2023/01/25 03:31:07;;;;;;;5.57;1.20;;;;;;;-146.73;100.00;56421.06;6187596;23;20004;-96
2023/01/25 03:34:06;;;;;;;5.47;1.33;;;;;;;-146.73;100.00;56421.06;6188972;23;20020;-96
2023/01/25 03:36:37;;;;;;;5.45;1.50;;;;;;;-146.73;100.00;56421.06;6187831;23;20116;-96
2023/01/25 03:39:12;;;;;;;6.72;1.45;;;;;;;-146.73;100.00;56421.06;6186762;23;20177;-96
2023/01/25 03:42:01;;;;;;;5.47;1.65;;;;;;;-146.73;100.00;56421.06;6184898;23;20446;-96
2023/01/25 03:44:34;;;;;;;4.70;1.33;;;;;;;-146.73;100.00;56421.06;6188652;23;20008;-96
2023/01/25 03:47:02;;;;;;;;;;;;;;;-146.73;100.00;56421.06;6188642;23;20011;-96
2023/01/25 03:49:42;;;;;;;4.75;1.13;;;;;;;-146.73;100.00;56421.06;6189817;23;19943;-96
2023/01/25 03:52:19;;;;;;;4.45;1.02;;;;;;;-146.73;100.00;56421.06;6189316;23;20330;-96
2023/01/25 03:55:08;;;;;;;5.32;1.35;;;;;;;-146.73;100.00;56421.06;6152468;23;20032;-96
2023/01/25 03:57:55;;;;;;;6.70;1.40;;;;;;;-146.73;100.00;56421.06;6127106;23;20012;-96
2023/01/25 04:00:30;;;;;;;4.45;1.17;;;;;;;-146.73;100.00;56421.06;6151470;23;20044;-96
2023/01/25 04:03:07;;;;;;;4.18;1.10;;;;;;;-146.73;100.00;56421.06;6127200;23;20483;-96
2023/01/25 04:06:03;;;;;;;4.82;1.23;;;;;;;-146.73;100.00;56421.06;6124056;23;20075;-96
2023/01/25 04:08:37;;;;;;;4.05;0.93;;;;;;;-146.73;100.00;56421.06;6141365;23;20013;-96
2023/01/25 04:11:58;;;;;;;4.47;1.10;;;;;;;-146.73;100.00;56421.06;6126554;23;20077;-95
2023/01/25 04:14:12;;;;;;;3.00;0.70;;;;;;;-146.73;100.00;56421.06;6143564;23;20485;-96
2023/01/25 04:16:38;;;;;;;4.85;1.10;;;;;;;-146.73;100.00;56421.06;6153686;23;20026;-96
2023/01/25 04:19:03;;;;;;;4.38;0.93;;;;;;;-146.73;100.00;56421.06;6126928;23;20538;-95
2023/01/25 04:21:30;;;;;;;3.25;0.68;;;;;;;-146.73;100.00;56421.06;6127377;23;20020;-96
2023/01/25 04:23:55;;;;;;;5.22;1.17;;;;;;;-146.73;100.00;56421.06;6126715;23;20025;-95
2023/01/25 04:26:20;;;;;;;3.75;0.80;;;;;;;-146.73;100.00;56421.06;6171832;23;20047;-96
2023/01/25 04:29:02;;;;;;;3.70;0.80;;;;;;;-146.73;100.00;56421.06;6187188;23;20004;-96
2023/01/25 04:31:27;;;;;;;4.05;0.90;;;;;;;-146.73;100.00;56421.06;6187790;23;20426;-96
2023/01/25 04:33:54;;;;;;;4.22;1.10;;;;;;;-146.73;100.00;56421.06;6187509;23;20012;-96
2023/01/25 04:36:20;;;;;;;3.00;0.80;;;;;;;-146.73;100.00;56421.06;6188054;23;20063;-96
2023/01/25 04:38:45;;;;;;;4.30;1.13;;;;;;;-146.73;100.00;56421.06;6188349;23;20020;-96
2023/01/25 04:41:10;;;;;;;3.72;1.00;;;;;;;-146.73;100.00;56421.06;6189603;23;20016;-96
2023/01/25 04:43:36;;;;;;;4.70;1.15;;;;;;;-146.73;100.00;56421.06;6189996;23;20004;-96
2023/01/25 04:46:01;;;;;;;5.75;1.45;;;;;;;-146.73;100.00;56421.06;6190090;23;20009;-96
2023/01/25 04:48:30;;;;;;;4.75;1.30;;;;;;;-146.73;100.00;56421.06;6189586;23;20066;-96
2023/01/25 04:51:09;;;;;;;5.32;1.45;;;;;;;-146.73;100.00;56421.06;6181821;23;20311;-96
2023/01/25 04:56:39;;;;;;;6.95;1.80;;;;;;;-146.73;100.00;56421.06;6210500;23;20008;-94
2023/01/25 04:59:14;;;;;;;6.00;2.00;;;;;;;-146.73;100.00;56421.06;6188900;23;20020;-96
2023/01/25 05:02:04;;;;;;;7.18;1.95;;;;;;;-146.73;100.00;56421.06;6187723;23;20024;-96
2023/01/25 05:07:45;;;;;;;6.82;1.95;;;;;;;-146.73;100.00;56421.06;6182889;23;20041;-96
2023/01/25 05:10:25;;;;;;;5.32;1.73;;;;;;;-146.73;100.00;56421.06;6183564;23;20013;-96
2023/01/25 05:13:20;;;;;;;;;;;;;;;;;;;;;
2023/01/25 05:15:54;;;;;;;6.55;1.90;;;;;;;-146.73;100.00;56421.06;6180630;23;20009;-96
2023/01/25 05:18:29;;;;;;;6.13;1.80;;;;;;;-146.73;100.00;56421.06;6178687;23;20014;-96
2023/01/25 05:21:00;;;;;;;6.45;2.00;;;;;;;-146.73;100.00;56421.06;6183736;23;20013;-95
2023/01/25 05:23:45;;;;;;;6.20;2.00;;;;;;;-146.73;100.00;56421.06;6183360;23;20317;-95
2023/01/25 05:30:16;;;;;;;;;;;;;;;;;;;;;
2023/01/25 05:33:06;;;;;;;7.40;1.85;;;;;;;-146.73;100.00;56421.06;6169258;23;20056;-96
2023/01/25 05:35:45;;;;;;;6.25;1.80;;;;;;;-146.73;100.00;56421.06;6184433;23;20021;-96
2023/01/25 05:38:33;;;;;;;6.00;1.80;;;;;;;-146.73;100.00;56421.06;6188356;23;20005;-96
2023/01/25 05:41:14;;;;;;;5.75;1.60;;;;;;;-146.73;100.00;56421.06;6188253;23;20024;-96
2023/01/25 05:43:39;;;;;;;5.25;1.45;;;;;;;-146.73;100.00;56421.06;6191625;23;20009;-96
2023/01/25 05:46:07;;;;;;;6.70;1.92;;;;;;;-146.73;100.00;56421.06;6191429;23;20019;-96
2023/01/25 05:48:32;;;;;;;6.10;1.98;;;;;;;-146.73;100.00;56421.06;6191992;23;20103;-96
2023/01/25 05:50:58;;;;;;;7.10;1.88;;;;;;;-146.73;100.00;56421.06;6189546;23;20090;-96
2023/01/25 05:53:27;;;;;;;6.75;2.00;;;;;;;-146.73;100.00;56421.06;6189563;23;20510;-96
2023/01/25 05:55:56;;;;;;;7.15;1.95;;;;;;;-146.73;100.00;56421.06;6189400;23;20005;-96
2023/01/25 05:58:21;;;;;;;6.40;1.90;;;;;;;-146.73;100.00;56421.06;6187924;23;20510;-96
2023/01/25 06:00:50;;;;;;;5.88;1.55;;;;;;;-146.73;100.00;56421.06;6184043;23;20013;-97
2023/01/25 06:03:15;;;;;;;6.00;1.83;;;;;;;-146.73;100.00;56421.06;6183930;23;20032;-96
2023/01/25 06:05:41;;;;;;;8.30;2.30;;;;;;;-146.73;100.00;56421.06;6187047;23;20439;-95
2023/01/25 06:08:06;;;;;;;5.97;1.80;;;;;;;-146.73;100.00;56421.06;6186228;23;20015;-96
2023/01/25 06:10:31;;;;;;;6.10;1.60;;;;;;;-146.73;100.00;56421.06;6194186;23;20005;-96
2023/01/25 06:12:59;;;;;;;6.15;1.67;;;;;;;-146.73;100.00;56421.06;6199405;23;20443;-96
2023/01/25 06:15:25;;;;;;;5.78;1.60;;;;;;;-146.73;100.00;56421.06;6199569;23;20103;-96
2023/01/25 06:17:59;;;;;;;24.88;2.60;;;;;;;-146.73;100.00;56421.06;6196595;23;20033;-96
2023/01/25 06:20:25;;;;;;;9.43;1.85;;;;;;;-146.73;100.00;56421.06;6193431;23;20017;-96
2023/01/25 06:22:52;;;;;;;12.20;1.55;;;;;;;-146.73;100.00;56421.06;6194485;23;20039;-96
2023/01/25 06:25:23;;;;;;;17.10;2.13;;;;;;;-146.73;100.00;56421.06;6191126;23;20013;-96
2023/01/25 06:27:50;;;;;;;4.13;1.13;;;;;;;-146.73;100.00;56421.06;6196989;23;20063;-96
2023/01/25 06:30:17;;;;;;;14.10;2.28;;;;;;;-146.73;100.00;56421.06;6191028;23;20137;-96
2023/01/25 06:32:42;;;;;;;9.32;2.03;;;;;;;-146.73;100.00;56421.06;6191720;23;20048;-96
2023/01/25 06:35:18;;;;;;;53.95;7.18;;;;;;;-146.73;100.00;56421.06;6191075;23;20001;-96
2023/01/25 06:38:24;;;;;;;7.85;1.77;;;;;;;-146.73;100.00;56421.06;6188053;23;20039;-96
2023/01/25 06:41:21;;;;;;;5.35;1.55;;;;;;;-146.73;100.00;56421.06;6178089;23;20457;-96
2023/01/25 06:44:09;;;;;;;4.80;1.20;;;;;;;-146.73;100.00;56421.06;6183329;23;20013;-94
2023/01/25 06:47:03;;;;;;;28.13;2.47;;;;;;;-146.73;100.00;56421.06;6183833;23;20055;-94
2023/01/25 06:49:47;;;;;;;13.95;2.25;;;;;;;-146.73;100.00;56421.06;6182179;23;20017;-96
2023/01/25 06:52:49;;;;;;;14.45;2.30;;;;;;;-146.73;100.00;56421.06;6183300;23;20091;-95
2023/01/25 06:55:20;;;;;;;14.77;2.42;;;;;;;-146.73;100.00;56421.06;6180210;23;20442;-95
2023/01/25 06:57:52;;;;;;;36.40;4.43;;;;;;;-146.73;100.00;56421.06;6183201;23;20017;-94
2023/01/25 07:00:54;;;;;;;24.92;3.10;;;;;;;-146.73;100.00;56421.06;6182836;23;20338;-96
2023/01/25 07:03:22;;;;;;;6.60;1.80;;;;;;;-146.73;100.00;56421.06;6186904;23;20451;-96
2023/01/25 07:06:15;;;;;;;16.83;1.95;;;;;;;-146.73;100.00;56421.06;6188475;23;20104;-96
2023/01/25 07:12:14;;;;;;;3.80;0.90;;;;;;;-146.73;100.00;56421.06;6216374;23;20019;-96
2023/01/25 07:14:50;;;;;;;6.28;1.13;;;;;;;-146.73;100.00;56421.06;6187922;23;20023;-96
2023/01/25 07:20:56;;;;;;;3.17;1.00;;;;;;;-146.73;100.00;56421.06;6195856;23;20127;-96
2023/01/25 07:23:21;;;;;;;;;;;;;;;-146.73;100.00;56421.06;6188208;23;20009;-96
2023/01/25 07:25:48;;;;;;;3.80;0.80;;;;;;;-146.73;100.00;56421.06;6186957;23;19908;-96
2023/01/25 07:28:14;;;;;;;5.95;1.00;;;;;;;-146.73;100.00;56421.06;6187781;23;20019;-96
2023/01/25 07:30:40;;;;;;;3.38;0.80;;;;;;;-146.73;100.00;56421.06;6186172;23;20338;-95
2023/01/25 07:33:07;;;;;;;12.40;1.20;;;;;;;-146.73;100.00;56421.06;6182345;23;20020;-96
2023/01/25 07:35:34;;;;;;;4.47;0.80;;;;;;;-146.73;100.00;56421.06;6185045;23;20012;-96
2023/01/25 07:38:02;;;;;;;4.57;0.90;;;;;;;-146.73;100.00;56421.06;6189143;23;20051;-96
2023/01/25 07:40:28;;;;;;;3.47;0.77;;;;;;;-146.73;100.00;56421.06;6188497;23;20016;-96
2023/01/25 07:42:57;;;;;;;4.80;0.90;;;;;;;-146.73;100.00;56421.06;6188874;23;20345;-96
2023/01/25 07:45:29;;;;;;;4.30;0.88;;;;;;;-146.73;100.00;56421.06;6190781;23;20008;-95
2023/01/25 07:47:57;;;;;;;5.32;0.90;;;;;;;-146.73;100.00;56421.06;6190974;23;20042;-96
2023/01/25 07:50:24;;;;;;;3.88;1.00;;;;;;;-146.73;100.00;56421.06;6194408;23;20004;-96
2023/01/25 07:52:50;;;;;;;18.75;1.45;;;;;;;-146.73;100.00;56421.06;6190103;23;20037;-94
2023/01/25 07:55:15;;;;;;;2.45;0.68;;;;;;;-146.73;100.00;56421.06;6184619;23;20062;-94
2023/01/25 07:57:44;;;;;;;4.13;0.82;;;;;;;-146.73;100.00;56421.06;6211712;23;20004;-94
2023/01/25 08:00:11;;;;;;;5.82;0.90;;;;;;;-146.73;100.00;56421.06;6184613;23;20027;-94
2023/01/25 08:02:37;;;;;;;4.55;0.77;;;;;;;-146.73;100.00;56421.06;6185292;23;20461;-94
2023/01/25 08:05:12;;;;;;;3.35;0.90;;;;;;;-146.73;100.00;56421.06;6188441;23;20064;-94
2023/01/25 08:07:38;;;;;;;2.28;0.70;;;;;;;-146.73;100.00;56421.06;6198335;23;20047;-95
2023/01/25 08:10:13;;;;;;;2.75;0.70;;;;;;;-146.73;100.00;56421.06;6196033;23;20024;-95
2023/01/25 08:12:39;;;;;;;2.40;0.60;;;;;;;-146.73;100.00;56421.06;6190803;23;20028;-95
2023/01/25 08:15:08;;;;;;;2.78;0.82;;;;;;;-146.73;100.00;56421.06;6186149;23;20394;-94
2023/01/25 08:17:33;;;;;;;3.05;0.82;;;;;;;-146.73;100.00;56421.06;6183262;23;20020;-94
2023/01/25 08:20:00;;;;;;;3.65;0.80;;;;;;;-146.73;100.00;56421.06;6184597;23;20219;-95
2023/01/25 08:22:27;;;;;;;3.08;0.77;;;;;;;-146.73;100.00;56421.06;6184856;23;20035;-95
2023/01/25 08:25:00;;;;;;;7.75;1.15;;;;;;;-146.73;100.00;56421.06;6183629;23;20465;-95
2023/01/25 08:27:27;;;;;;;3.83;1.10;;;;;;;-146.73;100.00;56421.06;6183041;23;20008;-95
2023/01/25 08:29:54;;;;;;;4.22;0.85;;;;;;;-146.73;100.00;56421.06;6184691;23;20000;-94
2023/01/25 08:32:20;;;;;;;3.88;0.98;;;;;;;-146.73;100.00;56421.06;6208265;23;20005;-93
2023/01/25 08:34:50;;;;;;;5.72;0.98;;;;;;;-146.73;100.00;56421.06;6182390;23;20019;-94
2023/01/25 08:37:16;;;;;;;7.00;1.27;;;;;;;-146.73;100.00;56421.06;6181291;23;20737;-93
2023/01/25 08:39:42;;;;;;;4.95;1.05;;;;;;;-146.73;100.00;56421.06;6180777;23;20017;-93
2023/01/25 08:42:10;;;;;;;7.90;1.10;;;;;;;-146.73;100.00;56421.06;6182602;23;20005;-93
2023/01/25 08:44:36;;;;;;;4.10;1.00;;;;;;;-146.73;100.00;56421.06;6182268;23;20012;-94
2023/01/25 08:47:02;;;;;;;3.88;0.95;;;;;;;-146.73;100.00;56421.06;6185681;23;20317;-94
2023/01/25 08:49:46;;;;;;;4.03;1.02;;;;;;;-146.73;100.00;56421.06;6187256;23;20524;-94
2023/01/25 08:52:13;;;;;;;3.78;1.05;;;;;;;-146.73;100.00;56421.06;6183958;23;20028;-94
2023/01/25 08:54:43;;;;;;;4.07;1.05;;;;;;;-146.73;100.00;56421.06;6186365;23;20008;-94
2023/01/25 08:57:09;;;;;;;4.15;1.10;;;;;;;-146.73;100.00;56421.06;6187634;23;20032;-93
2023/01/25 08:59:35;;;;;;;7.63;2.10;;;;;;;-146.73;100.00;56421.06;6211734;23;20001;-93
2023/01/25 09:02:00;;;;;;;4.97;1.27;;;;;;;-146.73;100.00;56421.06;6186188;23;20016;-94
2023/01/25 09:04:27;;;;;;;12.40;1.80;;;;;;;-146.73;100.00;56421.06;6181629;23;20067;-94
2023/01/25 09:06:58;;;;;;;13.98;2.00;;;;;;;-146.73;100.00;56421.06;6180884;23;20098;-93
2023/01/25 09:09:24;;;;;;;5.47;1.35;;;;;;;-146.73;100.00;56421.06;6178651;23;20032;-94
2023/01/25 09:11:52;;;;;;;4.93;1.30;;;;;;;-146.73;100.00;56421.06;6181127;23;20016;-93
2023/01/25 09:14:24;;;;;;;4.55;1.10;;;;;;;-146.73;100.00;56421.06;6180083;23;20012;-93
2023/01/25 09:16:52;;;;;;;4.18;1.20;;;;;;;-146.73;100.00;56421.06;6179642;23;20430;-94
2023/01/25 09:19:30;;;;;;;4.60;1.08;;;;;;;-146.73;100.00;56421.06;6178141;23;20213;-93
2023/01/25 09:22:03;;;;;;;4.55;1.20;;;;;;;-146.73;100.00;56421.06;6179384;23;20504;-93
2023/01/25 09:24:33;;;;;;;5.15;1.20;;;;;;;-146.73;100.00;56421.06;6181012;23;20025;-94
2023/01/25 09:26:59;;;;;;;23.65;2.80;;;;;;;-146.73;100.00;56421.06;6183307;23;20405;-94
2023/01/25 09:29:25;;;;;;;15.70;2.08;;;;;;;-146.73;100.00;56421.06;6182066;23;20020;-94
2023/01/25 09:31:51;;;;;;;13.32;1.55;;;;;;;-146.73;100.00;56421.06;6208424;23;20393;-93
2023/01/25 09:34:37;;;;;;;4.43;1.10;;;;;;;-146.73;100.00;56421.06;6180205;23;20096;-93
2023/01/25 09:37:12;;;;;;;5.07;1.23;;;;;;;-146.73;100.00;56421.06;6178183;23;20019;-93
2023/01/25 09:39:46;;;;;;;3.88;1.20;;;;;;;-146.73;100.00;56421.06;6179498;23;20022;-93
2023/01/25 09:42:42;;;;;;;5.65;1.60;;;;;;;-146.73;100.00;56421.06;6180821;23;20016;-93
2023/01/25 09:45:21;;;;;;;4.28;1.00;;;;;;;-146.73;100.00;56421.06;6181942;23;20489;-93
2023/01/25 09:47:58;;;;;;;3.63;0.80;;;;;;;-146.73;100.00;56421.06;6182705;23;20020;-91
2023/01/25 09:51:11;;;;;;;5.95;0.95;;;;;;;-146.73;100.00;56421.06;6211089;23;20005;-94
2023/01/25 09:53:57;;;;;;;3.85;0.85;;;;;;;-146.73;100.00;56421.06;6166264;23;20024;-93
2023/01/25 09:56:29;;;;;;;3.03;0.80;;;;;;;-146.73;100.00;56421.06;6180635;23;20021;-93
2023/01/25 09:59:02;;;;;;;3.13;0.82;;;;;;;-146.73;100.00;56421.06;6181339;23;20013;-93
2023/01/25 10:01:28;;;;;;;5.03;0.98;;;;;;;-146.73;100.00;56421.06;6179611;23;20013;-93
2023/01/25 10:04:21;;;;;;;2.60;0.77;;;;;;;-146.73;100.00;56421.06;6205088;23;20088;-95
2023/01/25 10:07:03;;;;;;;;;;;;;;;-146.73;100.00;56421.06;6170328;23;20067;-95
2023/01/25 10:10:14;;;;;;;3.15;0.77;;;;;;;-146.73;100.00;56421.06;6183007;23;19936;-95
2023/01/25 10:12:45;;;;;;;2.28;0.50;;;;;;;-146.73;100.00;56421.06;6162217;23;20040;-94
2023/01/25 10:15:28;;;;;;;1.75;0.55;;;;;;;-146.73;100.00;56421.06;6183311;23;20044;-94
2023/01/25 10:21:33;;;;;;;3.35;0.70;;;;;;;-146.73;100.00;56421.06;6166001;23;20206;-94
2023/01/25 10:24:23;;;;;;;6.43;0.77;;;;;;;-146.73;100.00;56421.06;6181989;23;20017;-95
2023/01/25 10:26:56;;;;;;;4.22;0.80;;;;;;;-146.73;100.00;56421.06;6180536;23;20434;-93
2023/01/25 10:29:50;;;;;;;9.70;1.47;;;;;;;-146.73;100.00;56421.06;6181153;23;20020;-94
2023/01/25 10:32:33;;;;;;;3.92;0.90;;;;;;;-146.73;100.00;56421.06;6182176;23;20009;-95
2023/01/25 10:35:22;;;;;;;2.67;0.65;;;;;;;-146.73;100.00;56421.06;6182312;23;20048;-94
2023/01/25 10:38:20;;;;;;;2.22;0.60;;;;;;;-146.73;100.00;56421.06;6179752;23;20096;-94
2023/01/25 10:41:11;;;;;;;4.43;0.95;;;;;;;-146.73;100.00;56421.06;6181231;23;20059;-94
2023/01/25 10:43:37;;;;;;;3.75;0.70;;;;;;;-146.73;100.00;56421.06;6122230;23;20104;-94
2023/01/25 10:46:16;;;;;;;3.53;0.88;;;;;;;-146.73;100.00;56421.06;6183231;23;20013;-96
2023/01/25 10:48:42;;;;;;;4.75;1.20;;;;;;;-146.73;100.00;56421.06;6182520;23;20108;-95
2023/01/25 10:51:07;;;;;;;4.28;0.95;;;;;;;-146.73;100.00;56421.06;6182798;23;20035;-95
2023/01/25 10:53:42;;;;;;;5.05;1.05;;;;;;;-146.73;100.00;56421.06;6182131;23;20331;-94
2023/01/25 10:56:10;;;;;;;3.70;0.90;;;;;;;-146.73;100.00;56421.06;6183085;23;20522;-94
2023/01/25 10:58:37;;;;;;;7.00;1.25;;;;;;;-146.73;100.00;56421.06;6179742;23;20021;-95
2023/01/25 11:01:29;;;;;;;4.70;1.20;;;;;;;-146.73;100.00;56421.06;6182362;23;20089;-94
2023/01/25 11:06:47;;;;;;;11.60;2.35;;;;;;;-146.73;100.00;56421.06;6180633;23;20017;-95
2023/01/25 11:09:28;;;;;;;4.32;1.33;;;;;;;-146.73;100.00;56421.06;6180467;23;20009;-94
2023/01/25 11:11:59;;;;;;;8.32;1.92;;;;;;;-146.73;100.00;56421.06;6180694;23;20017;-95
2023/01/25 11:14:28;;;;;;;5.63;1.52;;;;;;;-146.73;100.00;56421.06;6181026;23;20490;-94
2023/01/25 11:16:59;;;;;;;8.57;1.90;;;;;;;-146.73;100.00;56421.06;6180076;23;20009;-95
2023/01/25 11:19:38;;;;;;;6.40;1.95;;;;;;;-146.73;100.00;56421.06;6179052;23;20083;-95
2023/01/25 11:22:27;;;;;;;7.63;2.30;;;;;;;-146.73;100.00;56421.06;6180769;23;20007;-95
2023/01/25 11:24:54;;;;;;;8.05;2.53;;;;;;;-146.73;100.00;56421.06;6181455;23;20029;-94
2023/01/25 11:27:26;;;;;;;18.73;3.50;;;;;;;-146.73;100.00;56421.06;6183918;23;20017;-95
2023/01/25 11:30:04;;;;;;;8.07;3.22;;;;;;;-146.73;100.00;56421.06;6184798;23;20733;-94
2023/01/25 11:32:32;;;;;;;15.90;3.67;;;;;;;-146.73;100.00;56421.06;6184384;23;20033;-95
2023/01/25 11:35:10;;;;;;;16.52;3.72;;;;;;;-146.73;100.00;56421.06;6182737;23;20354;-95
2023/01/25 11:38:11;;;;;;;12.43;3.30;;;;;;;-146.73;100.00;56421.06;6181343;23;20488;-95
2023/01/25 11:41:17;;;;;;;17.05;3.42;;;;;;;-146.73;100.00;56421.06;6182709;23;20019;-95
2023/01/25 11:43:59;;;;;;;13.90;3.63;;;;;;;-146.73;100.00;56421.06;6183209;23;20167;-95
2023/01/25 11:46:56;;;;;;;9.18;3.22;;;;;;;-146.73;100.00;56421.06;6184002;23;20013;-95
2023/01/25 11:49:40;;;;;;;13.25;3.17;;;;;;;-146.73;100.00;56421.06;6182799;23;20004;-95
2023/01/25 11:52:34;;;;;;;10.50;3.25;;;;;;;-146.73;100.00;56421.06;6208724;23;20020;-95
2023/01/25 11:55:04;;;;;;;;;;;;;;;-146.73;100.00;56421.06;6162391;23;20459;-95
2023/01/25 11:57:48;;;;;;;13.20;3.28;;;;;;;-146.73;100.00;56421.06;6159034;23;20288;-95
2023/01/25 12:00:35;;;;;;;9.13;3.35;;;;;;;-146.73;100.00;56421.06;6161341;23;20016;-95
2023/01/25 12:03:35;;;;;;;11.45;3.50;;;;;;;-146.73;100.00;56421.06;6161629;23;20017;-95
2023/01/25 12:06:36;;;;;;;16.88;5.35;;;;;;;-146.73;100.00;56421.06;6156180;23;20074;-94